Airfield :
LOGIN :

Register | Disclaimer

   EN    FR    IT 

 










Legend :    VFR   Marginal VFR   IFR   Intensive IFR   Very Intensive IFR
Visi :
Ceiling :
>= 8 km
>= 3000ft
5 to 8 km
1000 to 3000 ft
1500m to 5 km
500 to 1000 ft
800 to 1500m
200 to 500 ft
< 800m
< 200 ft
Symbols :   Thunderstorms  Fog  Heavy snow  Heavy precipitations  Wind > 20 kt
SIGMETs :     Misc.  Thunderstorms  Icing  Turbulence  Mountain Waves  Volcanic Ashes







- Airport Elevation : 274 ft
- IATA code : PUY


LDPL - Pula

CURRENT METAR :
  • 180700Z 05003KT 020V090 6000 FEW003 13/13 Q1020 NOSIG

EXPIRED METARs :
  • 180630Z 05003KT 7000 MIFG NSC 11/11 Q1020 NOSIG
  • 180600Z 06003KT 020V080 7000 0900W R27/P2000N PRFG MIFG BR NSC 10/10 Q1020 TEMPO 3000 BR
  • 180530Z 01001KT 6000 0600 R27/0500N PRFG MIFG BR NSC 09/09 Q1020 TEMPO 3000 BR
  • 180500Z 00000KT 0500 R27/0300N FG NSC 10/09 Q1020 TEMPO 1500 BR
  • 180430Z VRB01KT 1300 0200W R27/P2000U PRFG NSC 11/11 Q1020 BECMG 3000

TAF AMD TAF LDPL
Valid from the 18 at 06:00 until the 19 at 06:00 UTC


180603Z 1806/1906 VRB02KT 6000 NSC TX21/1812Z TN09/1902Z
TEMPO 1806/1810 1500 MIFG BR
PROB30
TEMPO 1806/1809 0600 FG
BECMG 1815/1818 2000 MIFG BR
TEMPO 1820/1906 0400 FG
No reported NOTAMs for that airfield.



MET'MAP, your aeronautical weather chart ! - Copyright ORBIFLY December 2007 - Disclaimer

ORBIFLY MET'MAP TEAM :

Programming & Development : Alexandra Zaïnal
Concept & Development : Baudouin d'Aumeries
Co-Development & Prog : Marc-Olivier Méhu
Technical & hardware support : Manuel Goepfert

Contact : metmap@orbifly.com




SOURCES & CREDITS :

   NOAA